createdAt,value
2023-04-26T00:01:58.894Z,8.27
2023-04-26T00:04:26.418Z,9.10
2023-04-26T00:06:53.327Z,9.57
2023-04-26T00:09:20.204Z,10.57
2023-04-26T00:11:47.252Z,9.23
2023-04-26T00:14:14.133Z,9.80
2023-04-26T00:16:41.016Z,9.87
2023-04-26T00:19:07.891Z,11.90
2023-04-26T00:21:35.188Z,8.53
2023-04-26T00:24:02.018Z,11.60
2023-04-26T00:26:29.899Z,9.67
2023-04-26T00:28:56.934Z,9.93
2023-04-26T00:31:23.912Z,9.40
2023-04-26T00:33:51.558Z,9.67
2023-04-26T00:36:19.510Z,10.63
2023-04-26T00:38:46.998Z,10.00
2023-04-26T00:41:14.333Z,10.13
2023-04-26T00:43:41.466Z,9.87
2023-04-26T00:46:09.717Z,11.40
2023-04-26T00:48:37.436Z,9.93
2023-04-26T00:51:05.823Z,9.07
2023-04-26T00:53:34.275Z,9.47
2023-04-26T00:56:01.784Z,14.37
2023-04-26T00:58:29.123Z,8.87
2023-04-26T01:00:56.195Z,9.70
2023-04-26T01:03:23.265Z,10.23
2023-04-26T01:05:50.983Z,11.43
2023-04-26T01:08:21.011Z,12.50
2023-04-26T01:10:49.100Z,12.07
2023-04-26T01:13:17.052Z,12.20
2023-04-26T01:15:47.850Z,10.10
2023-04-26T01:18:15.206Z,10.20
2023-04-26T01:20:43.129Z,11.70
2023-04-26T01:23:11.781Z,10.40
2023-04-26T01:25:38.927Z,12.83
2023-04-26T01:28:06.090Z,12.67
2023-04-26T01:30:33.085Z,12.77
2023-04-26T01:32:59.977Z,11.93
2023-04-26T01:35:26.986Z,10.83
2023-04-26T01:37:53.826Z,13.63
2023-04-26T01:40:21.180Z,10.83
2023-04-26T01:42:48.000Z,9.70
2023-04-26T01:45:14.848Z,9.70
2023-04-26T01:47:41.672Z,10.23
2023-04-26T01:50:09.248Z,10.00
2023-04-26T01:52:36.230Z,10.57
2023-04-26T01:55:11.740Z,10.80
2023-04-26T01:57:38.796Z,11.53
2023-04-26T02:00:06.823Z,9.93
2023-04-26T02:02:33.696Z,9.20
2023-04-26T02:05:00.540Z,18.13
2023-04-26T02:07:27.354Z,8.87
2023-04-26T02:09:54.092Z,10.83
2023-04-26T02:12:20.887Z,10.03
2023-04-26T02:14:47.655Z,9.40
2023-04-26T02:17:14.785Z,9.90
2023-04-26T02:19:41.628Z,9.87
2023-04-26T02:22:08.468Z,9.70
2023-04-26T02:24:35.275Z,10.27
2023-04-26T02:27:04.060Z,9.67
2023-04-26T02:29:43.599Z,11.13
2023-04-26T02:32:11.129Z,10.03
2023-04-26T02:34:37.882Z,10.70
2023-04-26T02:37:04.668Z,11.03
2023-04-26T02:39:31.642Z,14.00
2023-04-26T02:41:58.610Z,12.70
2023-04-26T02:44:25.558Z,12.73
2023-04-26T02:46:52.343Z,13.03
2023-04-26T02:49:19.429Z,12.93
2023-04-26T02:51:46.256Z,12.57
2023-04-26T02:54:13.026Z,14.10
2023-04-26T02:56:40.037Z,11.07
2023-04-26T02:59:07.222Z,10.43
2023-04-26T03:01:34.245Z,10.70
2023-04-26T03:04:01.311Z,12.90
2023-04-26T03:06:28.736Z,11.10
2023-04-26T03:08:55.899Z,11.73
2023-04-26T03:11:22.644Z,11.17
2023-04-26T03:13:49.380Z,10.10
2023-04-26T03:16:19.051Z,11.27
2023-04-26T03:18:46.222Z,10.77
2023-04-26T03:21:13.120Z,13.80
2023-04-26T03:23:40.029Z,11.77
2023-04-26T03:26:07.004Z,13.67
2023-04-26T03:28:33.801Z,10.00
2023-04-26T03:31:01.811Z,9.00
2023-04-26T03:33:28.634Z,10.10
2023-04-26T03:35:55.854Z,11.07
2023-04-26T03:38:23.753Z,9.93
2023-04-26T03:40:50.484Z,9.90
2023-04-26T03:43:17.257Z,9.73
2023-04-26T03:45:48.885Z,9.80
2023-04-26T03:48:17.237Z,8.90
2023-04-26T03:50:45.416Z,10.03
2023-04-26T03:53:12.645Z,8.67
2023-04-26T03:55:39.389Z,8.93
2023-04-26T03:58:08.073Z,7.50
2023-04-26T04:00:38.769Z,7.77
2023-04-26T04:03:07.553Z,8.87
2023-04-26T04:05:35.064Z,6.87
2023-04-26T04:08:02.268Z,7.53
2023-04-26T04:10:29.415Z,8.60
2023-04-26T04:12:56.210Z,8.80
2023-04-26T04:15:23.596Z,11.10
2023-04-26T04:17:50.566Z,10.57
2023-04-26T04:20:17.835Z,11.30
2023-04-26T04:22:44.660Z,12.87
2023-04-26T04:25:12.237Z,9.67
2023-04-26T04:27:40.095Z,9.93
2023-04-26T04:30:09.079Z,10.97
2023-04-26T04:32:45.218Z,9.20
2023-04-26T04:35:12.501Z,11.60
2023-04-26T04:37:39.331Z,9.57
2023-04-26T04:40:10.918Z,9.50
2023-04-26T04:42:38.330Z,10.10
2023-04-26T04:45:05.564Z,9.67
2023-04-26T04:47:34.192Z,8.90
2023-04-26T04:50:02.071Z,10.00
2023-04-26T04:52:28.953Z,8.57
2023-04-26T04:54:56.049Z,8.67
2023-04-26T04:57:22.913Z,13.03
2023-04-26T04:59:49.774Z,8.90
2023-04-26T05:02:16.662Z,9.23
2023-04-26T05:04:43.707Z,9.20
2023-04-26T05:07:10.586Z,9.20
2023-04-26T05:09:37.917Z,10.73
2023-04-26T05:12:04.952Z,11.10
2023-04-26T05:14:31.830Z,11.87
2023-04-26T05:16:58.859Z,9.77
2023-04-26T05:19:25.715Z,11.73
2023-04-26T05:21:53.382Z,12.10
2023-04-26T05:24:20.235Z,12.50
2023-04-26T05:26:47.669Z,12.60
2023-04-26T05:29:14.428Z,12.00
2023-04-26T05:31:41.315Z,17.27
2023-04-26T05:34:08.207Z,14.30
2023-04-26T05:36:35.058Z,14.20
2023-04-26T05:39:02.002Z,13.07
2023-04-26T05:41:28.815Z,14.13
2023-04-26T05:43:55.824Z,12.53
2023-04-26T05:46:23.014Z,14.33
2023-04-26T05:48:50.572Z,14.17
2023-04-26T05:51:17.460Z,13.97
2023-04-26T05:53:44.272Z,12.60
2023-04-26T05:56:11.113Z,14.03
2023-04-26T05:58:38.006Z,15.33
2023-04-26T06:01:04.881Z,14.63
2023-04-26T06:03:32.080Z,12.63
2023-04-26T06:05:59.764Z,14.17
2023-04-26T06:08:28.376Z,15.20
2023-04-26T06:10:55.287Z,15.43
2023-04-26T06:13:22.069Z,17.17
2023-04-26T06:15:48.919Z,16.50
2023-04-26T06:18:15.914Z,15.47
2023-04-26T06:20:42.785Z,20.97
2023-04-26T06:23:09.615Z,14.33
2023-04-26T06:25:37.326Z,16.33
2023-04-26T06:28:04.518Z,13.33
2023-04-26T06:30:31.538Z,16.77
2023-04-26T06:33:00.360Z,14.23
2023-04-26T06:35:27.295Z,13.43
2023-04-26T06:37:54.130Z,13.17
2023-04-26T06:40:21.191Z,16.90
2023-04-26T06:42:48.201Z,16.27
2023-04-26T06:45:15.087Z,12.27
2023-04-26T06:47:42.467Z,13.13
2023-04-26T06:50:09.916Z,15.70
2023-04-26T06:52:36.721Z,14.27
2023-04-26T06:55:04.481Z,16.07
2023-04-26T06:57:31.322Z,14.00
2023-04-26T06:59:58.382Z,16.77
2023-04-26T07:02:25.713Z,12.97
2023-04-26T07:04:53.515Z,12.93
2023-04-26T07:07:20.724Z,13.40
2023-04-26T07:09:47.627Z,11.83
2023-04-26T07:12:14.583Z,12.20
2023-04-26T07:14:43.417Z,12.73
2023-04-26T07:17:10.841Z,16.07
2023-04-26T07:19:38.880Z,11.67
2023-04-26T07:22:05.787Z,12.00
2023-04-26T07:24:32.919Z,14.40
2023-04-26T07:26:59.718Z,14.13
2023-04-26T07:29:26.535Z,14.30
2023-04-26T07:31:53.293Z,13.33
2023-04-26T07:34:20.004Z,13.00
2023-04-26T07:36:47.068Z,13.20
2023-04-26T07:39:15.586Z,15.73
2023-04-26T07:41:44.041Z,6.53
2023-04-26T07:44:11.469Z,9.40
2023-04-26T07:46:38.519Z,8.37
2023-04-26T07:49:05.277Z,6.87
2023-04-26T07:51:32.229Z,6.27
2023-04-26T07:53:58.976Z,7.03
2023-04-26T07:56:25.783Z,5.07
2023-04-26T07:58:52.893Z,7.13
2023-04-26T08:01:19.936Z,6.27
2023-04-26T08:03:49.029Z,4.50
2023-04-26T08:06:16.897Z,7.63
2023-04-26T08:08:50.769Z,5.60
2023-04-26T08:11:18.405Z,6.10
2023-04-26T08:13:45.471Z,5.67
2023-04-26T08:16:12.687Z,4.60
2023-04-26T08:18:39.681Z,8.93
2023-04-26T08:21:06.940Z,5.27
2023-04-26T08:23:36.519Z,8.80
2023-04-26T08:26:03.990Z,6.73
2023-04-26T08:28:30.856Z,7.63
2023-04-26T08:30:58.315Z,7.00
2023-04-26T08:33:25.660Z,4.83
2023-04-26T08:35:52.565Z,4.40
2023-04-26T08:38:19.416Z,5.70
2023-04-26T08:40:47.798Z,6.83
2023-04-26T08:43:17.156Z,3.90
2023-04-26T08:45:49.431Z,8.10
2023-04-26T08:48:18.414Z,5.50
2023-04-26T08:50:46.859Z,8.10
2023-04-26T08:53:20.377Z,7.43
2023-04-26T08:55:51.024Z,5.57
2023-04-26T08:58:19.140Z,9.17
2023-04-26T09:00:46.640Z,4.10
2023-04-26T09:03:13.748Z,8.20
2023-04-26T09:05:44.310Z,5.23
2023-04-26T09:08:18.826Z,4.67
2023-04-26T09:10:45.835Z,4.27
2023-04-26T09:13:14.428Z,6.00
2023-04-26T09:15:41.699Z,5.03
2023-04-26T09:18:23.121Z,6.10
2023-04-26T09:21:07.889Z,6.80
2023-04-26T09:23:35.494Z,4.67
2023-04-26T09:26:19.269Z,5.73
2023-04-26T09:28:47.522Z,4.13
2023-04-26T09:31:41.035Z,8.60
2023-04-26T09:34:09.219Z,7.67
2023-04-26T09:36:55.641Z,5.80
2023-04-26T09:39:40.272Z,6.80
2023-04-26T09:42:08.633Z,6.83
2023-04-26T09:44:36.018Z,4.40
2023-04-26T09:47:11.998Z,11.27
2023-04-26T09:49:51.654Z,4.40
2023-04-26T09:52:19.944Z,5.53
2023-04-26T09:54:49.052Z,5.47
2023-04-26T09:57:17.370Z,6.20
2023-04-26T09:59:48.070Z,3.63
2023-04-26T10:02:20.110Z,8.17
2023-04-26T10:04:49.249Z,5.17
2023-04-26T10:07:17.976Z,5.83
2023-04-26T10:09:45.072Z,5.13
2023-04-26T10:12:13.465Z,5.30
2023-04-26T10:14:41.524Z,6.23
2023-04-26T10:17:08.530Z,7.87
2023-04-26T10:19:36.954Z,4.93
2023-04-26T10:22:29.220Z,6.23
2023-04-26T10:24:56.515Z,3.47
2023-04-26T10:27:48.256Z,6.17
2023-04-26T10:30:16.605Z,4.80
2023-04-26T10:32:53.210Z,5.63
2023-04-26T10:35:21.781Z,4.60
2023-04-26T10:38:03.745Z,5.80
2023-04-26T10:40:32.056Z,4.53
2023-04-26T10:43:28.053Z,3.80
2023-04-26T10:45:56.955Z,5.47
2023-04-26T10:48:29.851Z,8.00
2023-04-26T10:51:02.766Z,4.27
2023-04-26T10:53:46.152Z,7.73
2023-04-26T10:56:33.630Z,6.73
2023-04-26T11:02:00.984Z,2.50
2023-04-26T11:04:53.115Z,5.53
2023-04-26T11:07:38.772Z,3.33
2023-04-26T11:10:12.524Z,4.87
2023-04-26T11:12:42.359Z,8.27
2023-04-26T11:15:12.363Z,7.50
2023-04-26T11:17:39.149Z,3.73
2023-04-26T11:20:10.233Z,6.07
2023-04-26T11:22:41.890Z,7.10
2023-04-26T11:25:09.459Z,5.17
2023-04-26T11:27:36.495Z,5.23
2023-04-26T11:30:05.063Z,6.00
2023-04-26T11:32:33.151Z,4.60
2023-04-26T11:35:03.770Z,4.10
2023-04-26T11:37:30.632Z,6.93
2023-04-26T11:39:57.783Z,3.87
2023-04-26T11:42:27.613Z,5.77
2023-04-26T11:44:57.370Z,3.33
2023-04-26T11:47:26.070Z,3.47
2023-04-26T11:49:53.281Z,4.77
2023-04-26T11:52:20.208Z,5.13
2023-04-26T11:54:47.041Z,6.57
2023-04-26T11:57:17.185Z,3.03
2023-04-26T11:59:45.129Z,2.80
2023-04-26T12:02:12.618Z,3.83
2023-04-26T12:04:41.487Z,2.17
2023-04-26T12:07:08.700Z,5.50
2023-04-26T12:09:36.728Z,3.63
2023-04-26T12:12:06.567Z,3.70
2023-04-26T12:14:34.350Z,3.70
2023-04-26T12:17:03.373Z,2.77
2023-04-26T12:19:38.185Z,4.40
2023-04-26T12:22:09.020Z,4.27
2023-04-26T12:24:37.304Z,4.97
2023-04-26T12:27:07.047Z,2.83
2023-04-26T12:29:34.528Z,4.13
2023-04-26T12:32:03.032Z,4.43
2023-04-26T12:34:30.075Z,4.17
2023-04-26T12:36:57.796Z,3.03
2023-04-26T12:39:24.646Z,8.13
2023-04-26T12:41:51.542Z,5.93
2023-04-26T12:44:21.227Z,3.77
2023-04-26T12:46:49.159Z,22.80
2023-04-26T12:49:16.057Z,15.00
2023-04-26T12:51:42.803Z,3.77
2023-04-26T12:54:09.531Z,9.10
2023-04-26T12:56:40.743Z,2.57
2023-04-26T12:59:07.569Z,2.37
2023-04-26T13:01:34.462Z,4.43
2023-04-26T13:04:04.717Z,2.37
2023-04-26T13:06:32.275Z,5.17
2023-04-26T13:08:59.022Z,5.87
2023-04-26T13:11:25.931Z,3.57
2023-04-26T13:13:52.802Z,3.63
2023-04-26T13:16:19.981Z,5.73
2023-04-26T13:18:46.936Z,4.60
2023-04-26T13:21:13.758Z,5.70
2023-04-26T13:23:41.012Z,5.47
2023-04-26T13:26:07.792Z,7.57
2023-04-26T13:28:36.300Z,8.60
2023-04-26T13:31:03.410Z,9.70
2023-04-26T13:33:30.473Z,4.40
2023-04-26T13:35:57.400Z,5.43
2023-04-26T13:38:24.293Z,3.63
2023-04-26T13:40:51.898Z,3.67
2023-04-26T13:43:19.012Z,5.67
2023-04-26T13:45:45.994Z,3.87
2023-04-26T13:48:13.169Z,3.37
2023-04-26T13:50:40.287Z,4.10
2023-04-26T13:53:07.475Z,4.17
2023-04-26T13:55:34.286Z,6.13
2023-04-26T13:58:01.179Z,4.83
2023-04-26T14:00:28.001Z,4.43
2023-04-26T14:02:55.013Z,8.97
2023-04-26T14:05:23.750Z,3.07
2023-04-26T14:10:17.693Z,6.13
2023-04-26T14:12:44.469Z,4.03
2023-04-26T14:15:11.836Z,4.90
2023-04-26T14:17:38.657Z,5.80
2023-04-26T14:20:07.006Z,5.90
2023-04-26T14:22:33.984Z,6.33
2023-04-26T14:25:00.728Z,3.47
2023-04-26T14:27:27.551Z,3.87
2023-04-26T14:29:54.325Z,3.00
2023-04-26T14:32:21.218Z,26.33
2023-04-26T14:34:48.036Z,6.60
2023-04-26T14:37:16.401Z,15.07
2023-04-26T14:39:43.377Z,13.10
2023-04-26T14:42:11.253Z,12.23
2023-04-26T14:44:38.103Z,3.97
2023-04-26T14:47:05.090Z,6.17
2023-04-26T14:49:31.905Z,3.97
2023-04-26T14:51:58.682Z,6.23
2023-04-26T14:54:25.695Z,4.37
2023-04-26T14:56:52.723Z,6.90
2023-04-26T14:59:19.572Z,5.20
2023-04-26T15:01:46.511Z,6.77
2023-04-26T15:04:13.493Z,2.30
2023-04-26T15:06:40.639Z,3.23
2023-04-26T15:09:08.833Z,3.33
2023-04-26T15:11:36.103Z,6.70
2023-04-26T15:14:02.976Z,9.20
2023-04-26T15:16:30.138Z,2.93
2023-04-26T15:18:56.996Z,7.63
2023-04-26T15:21:23.763Z,4.80
2023-04-26T15:23:50.575Z,5.03
2023-04-26T15:26:17.341Z,3.53
2023-04-26T15:28:44.313Z,6.63
2023-04-26T15:31:11.492Z,5.43
2023-04-26T15:33:38.377Z,3.67
2023-04-26T15:36:05.680Z,5.03
2023-04-26T15:38:34.901Z,3.73
2023-04-26T15:41:01.789Z,6.07
2023-04-26T15:43:28.714Z,3.50
2023-04-26T15:45:55.679Z,3.20
2023-04-26T15:48:22.596Z,3.53
2023-04-26T15:50:50.614Z,5.23
2023-04-26T15:53:17.720Z,2.90
2023-04-26T15:55:47.479Z,3.73
2023-04-26T15:58:14.604Z,4.80
2023-04-26T16:00:41.369Z,5.93
2023-04-26T16:03:08.521Z,3.73
2023-04-26T16:05:35.768Z,5.43
2023-04-26T16:08:03.947Z,4.10
2023-04-26T16:10:30.712Z,5.90
2023-04-26T16:12:57.827Z,4.93
2023-04-26T16:15:24.503Z,8.53
2023-04-26T16:17:51.630Z,8.17
2023-04-26T16:20:18.451Z,5.47
2023-04-26T16:22:45.453Z,4.47
2023-04-26T16:25:12.341Z,3.17
2023-04-26T16:27:39.133Z,3.77
2023-04-26T16:30:06.447Z,5.87
2023-04-26T16:32:34.653Z,4.70
2023-04-26T16:35:01.535Z,3.73
2023-04-26T16:37:28.514Z,4.67
2023-04-26T16:39:58.040Z,4.33
2023-04-26T16:42:25.012Z,2.97
2023-04-26T16:44:52.217Z,5.13
2023-04-26T16:47:18.966Z,5.90
2023-04-26T16:49:45.888Z,4.30
2023-04-26T16:52:12.640Z,8.47
2023-04-26T16:54:39.532Z,4.37
2023-04-26T16:57:06.242Z,4.30
2023-04-26T16:59:33.143Z,5.97
2023-04-26T17:02:00.231Z,3.97
2023-04-26T17:04:27.454Z,4.90
2023-04-26T17:06:54.863Z,3.60
2023-04-26T17:09:21.693Z,4.83
2023-04-26T17:11:49.973Z,8.13
2023-04-26T17:14:16.790Z,5.57
2023-04-26T17:16:43.718Z,5.57
2023-04-26T17:19:11.052Z,3.73
2023-04-26T17:21:37.794Z,6.50
2023-04-26T17:24:04.852Z,5.77
2023-04-26T17:26:31.659Z,4.90
2023-04-26T17:28:58.397Z,5.87
2023-04-26T17:31:25.229Z,5.63
2023-04-26T17:33:52.199Z,3.03
2023-04-26T17:36:19.411Z,3.40
2023-04-26T17:38:46.240Z,6.10
2023-04-26T17:41:13.612Z,3.20
2023-04-26T17:43:40.554Z,5.03
2023-04-26T17:46:07.290Z,5.17
2023-04-26T17:48:34.247Z,6.23
2023-04-26T17:51:01.231Z,5.20
2023-04-26T17:53:28.083Z,2.87
2023-04-26T17:55:55.261Z,4.60
2023-04-26T17:58:21.974Z,5.20
2023-04-26T18:00:49.632Z,5.07
2023-04-26T18:03:16.695Z,4.53
2023-04-26T18:05:43.565Z,8.30
2023-04-26T18:08:10.732Z,3.53
2023-04-26T18:10:37.646Z,4.50
2023-04-26T18:13:09.365Z,7.73
2023-04-26T18:15:36.316Z,3.57
2023-04-26T18:18:05.688Z,5.47
2023-04-26T18:20:32.629Z,4.70
2023-04-26T18:22:59.356Z,7.33
2023-04-26T18:25:26.095Z,5.80
2023-04-26T18:27:52.841Z,5.27
2023-04-26T18:30:19.712Z,9.57
2023-04-26T18:32:46.414Z,4.10
2023-04-26T18:35:13.230Z,4.60
2023-04-26T18:37:41.194Z,8.00
2023-04-26T18:40:08.662Z,8.37
2023-04-26T18:42:35.477Z,4.00
2023-04-26T18:45:02.457Z,4.70
2023-04-26T18:47:29.247Z,5.60
2023-04-26T18:49:56.089Z,10.97
2023-04-26T18:52:22.785Z,4.63
2023-04-26T18:54:49.577Z,6.03
2023-04-26T18:57:21.941Z,7.57
2023-04-26T18:59:49.413Z,6.83
2023-04-26T19:02:16.216Z,7.17
2023-04-26T19:04:43.136Z,9.30
2023-04-26T19:07:10.004Z,9.20
2023-04-26T19:09:50.528Z,12.60
2023-04-26T19:12:20.793Z,10.17
2023-04-26T19:14:47.591Z,7.83
2023-04-26T19:17:14.393Z,9.30
2023-04-26T19:19:41.108Z,6.10
2023-04-26T19:22:07.871Z,7.23
2023-04-26T19:24:34.641Z,6.57
2023-04-26T19:27:01.476Z,9.93
2023-04-26T19:29:28.546Z,6.00
2023-04-26T19:31:55.533Z,7.20
2023-04-26T19:34:22.435Z,10.80
2023-04-26T19:36:49.266Z,7.27
2023-04-26T19:39:16.600Z,7.10
2023-04-26T19:41:43.293Z,10.40
2023-04-26T19:44:09.988Z,10.00
2023-04-26T19:46:37.848Z,7.83
2023-04-26T19:49:04.814Z,8.43
2023-04-26T19:51:32.208Z,7.67
2023-04-26T19:53:58.978Z,9.03
2023-04-26T19:56:25.833Z,9.30
2023-04-26T19:58:52.831Z,8.93
2023-04-26T20:01:19.631Z,7.27
2023-04-26T20:03:46.548Z,8.57
2023-04-26T20:06:14.201Z,6.97
2023-04-26T20:08:41.550Z,4.97
2023-04-26T20:11:14.630Z,6.80
2023-04-26T20:13:42.752Z,8.10
2023-04-26T20:16:10.694Z,6.90
2023-04-26T20:18:37.570Z,7.83
2023-04-26T20:21:05.139Z,6.53
2023-04-26T20:23:32.086Z,8.57
2023-04-26T20:25:58.840Z,6.03
2023-04-26T20:28:26.124Z,6.83
2023-04-26T20:30:53.463Z,4.73
2023-04-26T20:33:20.311Z,6.50
2023-04-26T20:35:47.222Z,8.90
2023-04-26T20:38:14.416Z,9.40
2023-04-26T20:40:41.205Z,5.13
2023-04-26T20:43:08.051Z,5.13
2023-04-26T20:45:35.012Z,5.53
2023-04-26T20:48:01.875Z,6.80
2023-04-26T20:50:28.813Z,5.63
2023-04-26T20:52:55.578Z,8.87
2023-04-26T20:55:22.664Z,6.57
2023-04-26T20:57:49.504Z,8.37
2023-04-26T21:00:16.686Z,7.30
2023-04-26T21:02:43.512Z,6.13
2023-04-26T21:05:10.783Z,11.27
2023-04-26T21:07:37.555Z,9.57
2023-04-26T21:10:04.733Z,6.57
2023-04-26T21:12:31.462Z,11.90
2023-04-26T21:14:58.188Z,8.87
2023-04-26T21:17:24.965Z,6.37
2023-04-26T21:19:51.781Z,8.77
2023-04-26T21:22:18.730Z,8.03
2023-04-26T21:24:45.444Z,9.70
2023-04-26T21:27:12.190Z,8.53
2023-04-26T21:29:39.262Z,7.00
2023-04-26T21:32:06.238Z,8.50
2023-04-26T21:34:32.934Z,8.23
2023-04-26T21:36:59.692Z,7.83
2023-04-26T21:39:26.436Z,7.30
2023-04-26T21:41:53.179Z,10.03
2023-04-26T21:44:19.859Z,7.33
2023-04-26T21:46:46.679Z,6.40
2023-04-26T21:49:13.688Z,8.37
2023-04-26T21:51:40.438Z,9.33
2023-04-26T21:54:07.241Z,8.17
2023-04-26T21:56:33.978Z,9.43
2023-04-26T21:59:02.472Z,9.13
2023-04-26T22:01:29.345Z,6.10
2023-04-26T22:03:56.413Z,11.60
2023-04-26T22:06:23.191Z,10.17
2023-04-26T22:08:49.964Z,8.77
2023-04-26T22:11:16.757Z,12.00
2023-04-26T22:13:43.503Z,8.97
2023-04-26T22:16:10.762Z,7.80
2023-04-26T22:18:37.542Z,7.00
2023-04-26T22:21:04.424Z,7.23
2023-04-26T22:23:31.440Z,9.73
2023-04-26T22:25:59.759Z,8.00
2023-04-26T22:28:26.791Z,5.87
2023-04-26T22:30:53.773Z,6.43
2023-04-26T22:33:20.510Z,11.13
2023-04-26T22:35:47.465Z,10.27
2023-04-26T22:38:14.283Z,9.90
2023-04-26T22:40:41.127Z,7.63
2023-04-26T22:43:07.987Z,10.77
2023-04-26T22:45:34.877Z,10.07
2023-04-26T22:48:01.729Z,9.77
2023-04-26T22:50:28.766Z,6.20
2023-04-26T22:52:56.011Z,8.53
2023-04-26T22:55:22.913Z,12.77
2023-04-26T22:57:49.617Z,7.77
2023-04-26T23:00:16.686Z,5.30
2023-04-26T23:02:43.579Z,5.73
2023-04-26T23:05:10.691Z,5.30
2023-04-26T23:07:38.906Z,8.17
2023-04-26T23:10:06.868Z,7.40
2023-04-26T23:12:33.704Z,10.30
2023-04-26T23:15:00.554Z,8.27
2023-04-26T23:17:27.442Z,10.93
2023-04-26T23:19:54.653Z,8.57
2023-04-26T23:22:21.651Z,12.93
2023-04-26T23:24:48.413Z,11.20
2023-04-26T23:27:15.188Z,7.70
2023-04-26T23:29:41.921Z,11.33
2023-04-26T23:32:08.633Z,7.67
2023-04-26T23:34:35.497Z,10.03
2023-04-26T23:37:07.833Z,8.47
2023-04-26T23:39:35.639Z,6.63
2023-04-26T23:42:02.566Z,5.07
2023-04-26T23:44:29.391Z,8.23
2023-04-26T23:46:56.303Z,6.93
2023-04-26T23:49:23.161Z,9.80
2023-04-26T23:51:50.566Z,6.10
2023-04-26T23:54:17.370Z,9.03
2023-04-26T23:56:44.222Z,11.13
2023-04-26T23:59:11.294Z,7.77
